createdAt,value
2017-07-06T00:00:51.105Z,17.7
2017-07-06T00:01:51.145Z,17.66
2017-07-06T00:02:51.181Z,17.71
2017-07-06T00:03:51.220Z,17.63
2017-07-06T00:04:51.260Z,17.62
2017-07-06T00:05:51.299Z,17.69
2017-07-06T00:06:51.337Z,17.64
2017-07-06T00:07:51.375Z,17.62
2017-07-06T00:08:51.415Z,17.55
2017-07-06T00:09:51.454Z,17.57
2017-07-06T00:10:51.493Z,17.51
2017-07-06T00:11:51.532Z,17.53
2017-07-06T00:12:51.570Z,17.51
2017-07-06T00:13:51.613Z,17.48
2017-07-06T00:14:51.649Z,17.55
2017-07-06T00:15:51.692Z,17.47
2017-07-06T00:16:51.727Z,17.51
2017-07-06T00:17:51.766Z,17.4
2017-07-06T00:18:51.805Z,17.36
2017-07-06T00:19:51.843Z,17.46
2017-07-06T00:20:51.927Z,17.51
2017-07-06T00:21:51.922Z,17.41
2017-07-06T00:22:51.956Z,17.47
2017-07-06T00:23:51.999Z,17.43
2017-07-06T00:24:52.035Z,17.41
2017-07-06T00:25:52.075Z,17.41
2017-07-06T00:26:52.113Z,17.38
2017-07-06T00:27:52.157Z,17.43
2017-07-06T00:28:52.192Z,17.44
2017-07-06T00:29:52.231Z,17.36
2017-07-06T00:30:52.273Z,17.41
2017-07-06T00:31:52.306Z,17.36
2017-07-06T00:32:52.349Z,17.38
2017-07-06T00:33:52.385Z,17.47
2017-07-06T00:34:52.425Z,17.43
2017-07-06T00:35:52.464Z,17.46
2017-07-06T00:36:52.502Z,17.36
2017-07-06T00:37:52.861Z,17.33
2017-07-06T00:38:52.581Z,17.36
2017-07-06T00:39:52.621Z,17.4
2017-07-06T00:40:52.657Z,17.36
2017-07-06T00:41:52.698Z,17.29
2017-07-06T00:42:52.737Z,17.33
2017-07-06T00:43:52.776Z,17.25
2017-07-06T00:44:52.811Z,17.15
2017-07-06T00:45:52.852Z,17.22
2017-07-06T00:46:52.890Z,17.23
2017-07-06T00:47:53.251Z,17.22
2017-07-06T00:48:52.966Z,17.18
2017-07-06T00:49:53.016Z,17.2
2017-07-06T00:50:53.044Z,17.15
2017-07-06T00:51:53.082Z,17.18
2017-07-06T00:52:53.120Z,17.26
2017-07-06T00:53:53.162Z,17.22
2017-07-06T00:54:53.202Z,17.18
2017-07-06T00:55:53.237Z,17.17
2017-07-06T00:56:53.278Z,17.15
2017-07-06T00:57:53.316Z,17.1
2017-07-06T00:58:53.352Z,17.13
2017-07-06T00:59:53.400Z,17.11
2017-07-06T01:00:53.431Z,17.11
2017-07-06T01:01:53.470Z,17.07
2017-07-06T01:02:53.509Z,17.06
2017-07-06T01:03:53.549Z,17.03
2017-07-06T01:04:53.587Z,17.04
2017-07-06T01:05:53.627Z,16.96
2017-07-06T01:06:53.664Z,16.99
2017-07-06T01:07:53.702Z,16.96
2017-07-06T01:08:53.741Z,17.03
2017-07-06T01:09:53.779Z,16.93
2017-07-06T01:10:53.818Z,16.95
2017-07-06T01:11:53.857Z,16.98
2017-07-06T01:12:53.895Z,16.95
2017-07-06T01:13:53.935Z,16.96
2017-07-06T01:14:53.976Z,16.98
2017-07-06T01:15:54.013Z,16.92
2017-07-06T01:16:54.050Z,17.04
2017-07-06T01:17:54.085Z,16.95
2017-07-06T01:18:54.128Z,16.96
2017-07-06T01:19:54.164Z,16.93
2017-07-06T01:20:54.203Z,16.93
2017-07-06T01:21:54.239Z,17.04
2017-07-06T01:22:54.279Z,17.06
2017-07-06T01:23:54.321Z,16.98
2017-07-06T01:24:54.358Z,16.95
2017-07-06T01:25:54.398Z,16.96
2017-07-06T01:26:54.439Z,17.04
2017-07-06T01:27:54.474Z,16.95
2017-07-06T01:28:54.512Z,16.93
2017-07-06T01:29:54.552Z,16.96
2017-07-06T01:30:54.589Z,17.06
2017-07-06T01:31:54.630Z,16.98
2017-07-06T01:32:54.666Z,16.95
2017-07-06T01:33:54.705Z,16.98
2017-07-06T01:34:54.745Z,16.88
2017-07-06T01:35:54.782Z,16.92
2017-07-06T01:36:54.818Z,16.96
2017-07-06T01:37:54.861Z,16.83
2017-07-06T01:38:54.900Z,16.85
2017-07-06T01:39:54.937Z,16.86
2017-07-06T01:40:54.977Z,16.85
2017-07-06T01:41:55.012Z,16.88
2017-07-06T01:42:55.052Z,16.86
2017-07-06T01:43:55.092Z,16.88
2017-07-06T01:44:55.129Z,16.86
2017-07-06T01:45:55.165Z,16.77
2017-07-06T01:46:55.205Z,16.83
2017-07-06T01:47:55.246Z,16.85
2017-07-06T01:48:55.283Z,16.85
2017-07-06T01:49:55.320Z,16.83
2017-07-06T01:50:55.360Z,16.89
2017-07-06T01:51:55.398Z,16.89
2017-07-06T01:52:55.438Z,16.77
2017-07-06T01:53:55.475Z,16.86
2017-07-06T01:54:55.514Z,16.89
2017-07-06T01:55:55.553Z,16.81
2017-07-06T01:56:55.593Z,16.85
2017-07-06T01:57:55.628Z,16.78
2017-07-06T01:58:55.669Z,16.81
2017-07-06T01:59:55.707Z,16.78
2017-07-06T02:00:55.745Z,16.78
2017-07-06T02:01:55.785Z,16.74
2017-07-06T02:02:55.821Z,16.77
2017-07-06T02:03:55.862Z,16.75
2017-07-06T02:04:55.899Z,16.75
2017-07-06T02:05:55.941Z,16.74
2017-07-06T02:06:55.975Z,16.63
2017-07-06T02:07:56.013Z,16.56
2017-07-06T02:08:56.055Z,16.59
2017-07-06T02:09:56.093Z,16.56
2017-07-06T02:10:56.131Z,16.67
2017-07-06T02:11:56.168Z,16.59
2017-07-06T02:12:56.208Z,16.58
2017-07-06T02:13:56.245Z,16.6
2017-07-06T02:14:56.284Z,16.6
2017-07-06T02:15:56.324Z,16.6
2017-07-06T02:16:56.361Z,16.58
2017-07-06T02:17:56.717Z,16.56
2017-07-06T02:18:56.439Z,16.53
2017-07-06T02:19:56.479Z,16.53
2017-07-06T02:20:56.513Z,16.52
2017-07-06T02:21:56.552Z,16.49
2017-07-06T02:22:56.587Z,16.52
2017-07-06T02:23:56.629Z,16.58
2017-07-06T02:24:56.670Z,16.5
2017-07-06T02:25:56.704Z,16.52
2017-07-06T02:26:56.745Z,16.55
2017-07-06T02:27:56.784Z,16.59
2017-07-06T02:28:56.821Z,16.63
2017-07-06T02:29:56.859Z,16.53
2017-07-06T02:30:56.897Z,16.56
2017-07-06T02:31:56.936Z,16.6
2017-07-06T02:32:56.979Z,16.6
2017-07-06T02:33:57.014Z,16.68
2017-07-06T02:34:57.050Z,16.52
2017-07-06T02:35:57.090Z,16.58
2017-07-06T02:36:57.130Z,16.6
2017-07-06T02:37:57.164Z,16.6
2017-07-06T02:38:57.206Z,16.6
2017-07-06T02:39:57.242Z,16.59
2017-07-06T02:40:57.283Z,16.53
2017-07-06T02:41:57.322Z,16.5
2017-07-06T02:42:57.360Z,16.5
2017-07-06T02:43:57.399Z,16.5
2017-07-06T02:44:57.435Z,16.52
2017-07-06T02:45:57.476Z,16.55
2017-07-06T02:46:57.511Z,16.53
2017-07-06T02:47:57.552Z,16.41
2017-07-06T02:48:57.588Z,16.41
2017-07-06T02:49:57.942Z,16.45
2017-07-06T02:50:57.666Z,16.5
2017-07-06T02:51:57.704Z,16.5
2017-07-06T02:52:57.741Z,16.41
2017-07-06T02:53:57.782Z,16.5
2017-07-06T02:54:57.819Z,16.48
2017-07-06T02:55:57.861Z,16.49
2017-07-06T02:56:57.896Z,16.45
2017-07-06T02:57:57.934Z,16.37
2017-07-06T02:58:57.971Z,16.5
2017-07-06T02:59:58.010Z,16.5
2017-07-06T03:00:58.047Z,16.52
2017-07-06T03:01:58.086Z,16.52
2017-07-06T03:02:58.124Z,16.53
2017-07-06T03:03:58.163Z,16.5
2017-07-06T03:04:58.200Z,16.44
2017-07-06T03:05:58.241Z,16.44
2017-07-06T03:06:58.278Z,16.49
2017-07-06T03:07:58.314Z,16.45
2017-07-06T03:08:58.355Z,16.38
2017-07-06T03:09:58.393Z,16.44
2017-07-06T03:10:58.432Z,16.42
2017-07-06T03:11:58.472Z,16.37
2017-07-06T03:12:58.508Z,16.44
2017-07-06T03:13:58.548Z,16.33
2017-07-06T03:14:58.586Z,16.3
2017-07-06T03:15:58.622Z,16.38
2017-07-06T03:16:58.659Z,16.34
2017-07-06T03:17:58.698Z,16.42
2017-07-06T03:18:58.738Z,16.45
2017-07-06T03:19:58.775Z,16.37
2017-07-06T03:20:58.814Z,16.48
2017-07-06T03:21:58.851Z,16.52
2017-07-06T03:22:58.890Z,16.48
2017-07-06T03:23:58.929Z,16.45
2017-07-06T03:24:58.970Z,16.55
2017-07-06T03:25:59.006Z,16.52
2017-07-06T03:26:59.045Z,16.58
2017-07-06T03:27:59.084Z,16.67
2017-07-06T03:28:59.120Z,16.55
2017-07-06T03:29:59.159Z,16.67
2017-07-06T03:30:59.199Z,16.58
2017-07-06T03:31:59.237Z,16.53
2017-07-06T03:32:59.276Z,16.67
2017-07-06T03:33:59.312Z,16.53
2017-07-06T03:34:59.352Z,16.58
2017-07-06T03:35:59.392Z,16.68
2017-07-06T03:36:59.427Z,16.59
2017-07-06T03:37:59.469Z,16.62
2017-07-06T03:38:59.506Z,16.67
2017-07-06T03:39:59.542Z,16.71
2017-07-06T03:40:59.582Z,16.74
2017-07-06T03:41:59.621Z,16.78
2017-07-06T03:42:59.660Z,16.88
2017-07-06T03:43:59.698Z,17.03
2017-07-06T03:44:59.737Z,17.1
2017-07-06T03:45:59.775Z,17.28
2017-07-06T03:46:59.815Z,17.4
2017-07-06T03:47:59.851Z,17.51
2017-07-06T03:48:59.892Z,17.53
2017-07-06T03:49:59.931Z,17.64
2017-07-06T03:50:59.969Z,17.69
2017-07-06T03:52:00.009Z,17.87
2017-07-06T03:53:00.046Z,17.89
2017-07-06T03:54:00.088Z,18.03
2017-07-06T03:55:00.123Z,18.1
2017-07-06T03:56:00.163Z,18.04
2017-07-06T03:57:00.203Z,18.06
2017-07-06T03:58:00.240Z,18.07
2017-07-06T03:59:00.279Z,17.95
2017-07-06T04:00:00.318Z,17.91
2017-07-06T04:01:00.358Z,17.91
2017-07-06T04:02:00.394Z,18.06
2017-07-06T04:03:00.435Z,18.21
2017-07-06T04:04:00.474Z,18.27
2017-07-06T04:05:00.512Z,18.47
2017-07-06T04:06:00.551Z,18.83
2017-07-06T04:07:00.593Z,19.01
2017-07-06T04:08:00.629Z,19.38
2017-07-06T04:09:00.668Z,19.61
2017-07-06T04:10:00.710Z,19.9
2017-07-06T04:11:00.750Z,20.16
2017-07-06T04:12:00.790Z,20.56
2017-07-06T04:13:00.829Z,20.79
2017-07-06T04:14:00.869Z,20.9
2017-07-06T04:15:00.908Z,21.09
2017-07-06T04:16:00.950Z,21.32
2017-07-06T04:17:00.989Z,21.34
2017-07-06T04:18:01.032Z,21.61
2017-07-06T04:19:01.071Z,21.76
2017-07-06T04:20:01.108Z,21.99
2017-07-06T04:21:01.148Z,22.1
2017-07-06T04:22:01.188Z,22.27
2017-07-06T04:23:01.232Z,22.49
2017-07-06T04:24:01.271Z,22.6
2017-07-06T04:25:01.627Z,22.9
2017-07-06T04:26:01.355Z,23.05
2017-07-06T04:27:01.394Z,23.38
2017-07-06T04:28:01.435Z,23.58
2017-07-06T04:29:01.477Z,23.68
2017-07-06T04:30:01.519Z,23.86
2017-07-06T04:31:01.561Z,24.1
2017-07-06T04:32:01.601Z,24.2
2017-07-06T04:33:01.644Z,24.24
2017-07-06T04:34:01.685Z,24.35
2017-07-06T04:35:01.727Z,24.42
2017-07-06T04:36:01.767Z,24.6
2017-07-06T04:37:01.808Z,24.83
2017-07-06T04:38:01.854Z,25.07
2017-07-06T04:39:01.895Z,25.16
2017-07-06T04:40:01.936Z,25.35
2017-07-06T04:41:01.987Z,25.68
2017-07-06T04:42:02.026Z,25.83
2017-07-06T04:43:02.064Z,25.84
2017-07-06T04:44:02.107Z,25.61
2017-07-06T04:45:02.153Z,25.31
2017-07-06T04:46:02.190Z,25.13
2017-07-06T04:47:02.235Z,24.77
2017-07-06T04:48:02.276Z,24.63
2017-07-06T04:49:02.321Z,24.52
2017-07-06T04:50:02.361Z,24.64
2017-07-06T04:51:02.403Z,24.68
2017-07-06T04:52:02.444Z,24.61
2017-07-06T04:53:02.487Z,24.53
2017-07-06T04:54:02.533Z,24.77
2017-07-06T04:55:02.572Z,25
2017-07-06T04:56:02.614Z,25.27
2017-07-06T04:57:02.656Z,25.42
2017-07-06T04:58:02.741Z,25.42
2017-07-06T04:59:02.742Z,25.22
2017-07-06T05:00:02.785Z,25.06
2017-07-06T05:01:02.825Z,24.87
2017-07-06T05:02:02.872Z,24.56
2017-07-06T05:03:02.911Z,24.26
2017-07-06T05:04:02.956Z,24
2017-07-06T05:05:02.998Z,23.71
2017-07-06T05:06:03.041Z,23.4
2017-07-06T05:07:03.085Z,23.19
2017-07-06T05:08:03.127Z,23.07
2017-07-06T05:09:03.488Z,22.92
2017-07-06T05:10:03.211Z,23.12
2017-07-06T05:11:03.253Z,23.27
2017-07-06T05:12:03.294Z,23.6
2017-07-06T05:13:03.340Z,23.68
2017-07-06T05:14:03.385Z,23.68
2017-07-06T05:15:03.421Z,23.49
2017-07-06T05:16:03.462Z,23.5
2017-07-06T05:17:03.507Z,23.46
2017-07-06T05:18:03.548Z,23.4
2017-07-06T05:19:03.590Z,23.35
2017-07-06T05:20:03.632Z,23.55
2017-07-06T05:21:03.671Z,23.46
2017-07-06T05:22:03.716Z,23.32
2017-07-06T05:23:03.771Z,23.19
2017-07-06T05:24:03.799Z,23.02
2017-07-06T05:25:03.840Z,22.93
2017-07-06T05:26:03.881Z,22.82
2017-07-06T05:27:03.923Z,22.69
2017-07-06T05:28:03.967Z,22.64
2017-07-06T05:29:04.008Z,22.62
2017-07-06T05:30:04.051Z,22.41
2017-07-06T05:31:04.089Z,22.46
2017-07-06T05:32:04.130Z,22.39
2017-07-06T05:33:04.168Z,22.38
2017-07-06T05:34:04.215Z,22.39
2017-07-06T05:35:04.254Z,22.32
2017-07-06T05:36:04.297Z,22.27
2017-07-06T05:37:04.337Z,22.29
2017-07-06T05:38:04.380Z,22.17
2017-07-06T05:39:04.423Z,22.2
2017-07-06T05:40:04.464Z,22.17
2017-07-06T05:41:04.507Z,22.25
2017-07-06T05:42:04.544Z,22.23
2017-07-06T05:43:04.587Z,22.28
2017-07-06T05:44:04.628Z,22.53
2017-07-06T05:45:04.670Z,22.92
2017-07-06T05:46:04.723Z,23.5
2017-07-06T05:47:04.754Z,24.44
2017-07-06T05:48:04.794Z,25.2
2017-07-06T05:49:04.841Z,26.08
2017-07-06T05:50:04.882Z,26.86
2017-07-06T05:51:04.927Z,27.31
2017-07-06T05:52:04.968Z,27.71
2017-07-06T05:53:05.017Z,27.76
2017-07-06T05:54:05.058Z,27.62
2017-07-06T05:55:05.104Z,27.59
2017-07-06T05:56:05.156Z,27.73
2017-07-06T05:57:05.194Z,27.95
2017-07-06T05:58:05.238Z,28.28
2017-07-06T05:59:05.282Z,28.72
2017-07-06T06:00:05.326Z,29.2
2017-07-06T06:01:05.373Z,29.66
2017-07-06T06:02:05.416Z,30.19
2017-07-06T06:03:05.465Z,30.54
2017-07-06T06:04:05.510Z,30.8
2017-07-06T06:05:05.559Z,30.89
2017-07-06T06:06:05.917Z,30.91
2017-07-06T06:07:05.649Z,31.01
2017-07-06T06:08:05.695Z,31.26
2017-07-06T06:09:05.743Z,31.15
2017-07-06T06:10:05.835Z,31.13
2017-07-06T06:11:06.209Z,30.99
2017-07-06T06:12:05.883Z,30.93
2017-07-06T06:13:05.930Z,30.91
2017-07-06T06:14:05.974Z,30.74
2017-07-06T06:15:06.023Z,30.59
2017-07-06T06:16:06.071Z,30.57
2017-07-06T06:17:06.122Z,30.38
2017-07-06T06:18:06.171Z,30.4
2017-07-06T06:19:06.211Z,30.67
2017-07-06T06:20:06.256Z,31.04
2017-07-06T06:21:06.305Z,31.57
2017-07-06T06:22:06.351Z,32.03
2017-07-06T06:23:06.405Z,32.32
2017-07-06T06:24:06.449Z,32.54
2017-07-06T06:25:06.496Z,32.73
2017-07-06T06:26:06.565Z,33.06
2017-07-06T06:27:06.597Z,33.37
2017-07-06T06:28:06.641Z,33.83
2017-07-06T06:29:06.692Z,34.01
2017-07-06T06:30:06.741Z,34.29
2017-07-06T06:31:06.790Z,34.51
2017-07-06T06:32:06.841Z,34.57
2017-07-06T06:33:06.890Z,34.83
2017-07-06T06:34:06.942Z,35.11
2017-07-06T06:35:07.064Z,35.21
2017-07-06T06:36:07.040Z,35.13
2017-07-06T06:37:07.096Z,35.29
2017-07-06T06:38:07.148Z,35.48
2017-07-06T06:39:07.191Z,35.14
2017-07-06T06:40:07.264Z,34.81
2017-07-06T06:41:07.298Z,34.36
2017-07-06T06:42:07.342Z,34.01
2017-07-06T06:43:07.395Z,33.68
2017-07-06T06:44:07.443Z,33.42
2017-07-06T06:45:07.503Z,33.23
2017-07-06T06:46:07.552Z,33.04
2017-07-06T06:47:07.730Z,32.76
2017-07-06T06:48:07.644Z,32.76
2017-07-06T06:49:07.701Z,32.76
2017-07-06T06:50:07.739Z,32.44
2017-07-06T06:51:07.788Z,32.3
2017-07-06T06:52:07.841Z,32.14
2017-07-06T06:53:07.887Z,32.35
2017-07-06T06:54:07.953Z,32.69
2017-07-06T06:55:07.988Z,33.03
2017-07-06T06:56:08.065Z,33.19
2017-07-06T06:57:08.091Z,33.41
2017-07-06T06:58:08.133Z,33.85
2017-07-06T06:59:08.193Z,34.16
2017-07-06T07:00:08.234Z,34.53
2017-07-06T07:01:08.282Z,34.74
2017-07-06T07:02:08.334Z,34.83
2017-07-06T07:03:08.386Z,35.18
2017-07-06T07:04:08.433Z,35.47
2017-07-06T07:05:08.485Z,35.97
2017-07-06T07:06:08.536Z,36.35
2017-07-06T07:07:08.585Z,36.7
2017-07-06T07:08:08.642Z,37.1
2017-07-06T07:09:08.692Z,37.46
2017-07-06T07:10:08.745Z,37.86
2017-07-06T07:11:08.799Z,38.11
2017-07-06T07:12:08.848Z,38.38
2017-07-06T07:13:08.909Z,38.57
2017-07-06T07:14:08.958Z,38.76
2017-07-06T07:15:09.010Z,39.05
2017-07-06T07:16:09.062Z,39.35
2017-07-06T07:17:09.120Z,39.58
2017-07-06T07:18:09.171Z,39.76
2017-07-06T07:19:09.226Z,39.86
2017-07-06T07:20:09.281Z,39.93
2017-07-06T07:21:09.332Z,39.98
2017-07-06T07:22:09.386Z,40.1
2017-07-06T07:23:09.442Z,40.05
2017-07-06T07:24:09.498Z,39.96
2017-07-06T07:25:09.553Z,39.96
2017-07-06T07:26:09.608Z,39.92
2017-07-06T07:27:09.661Z,39.83
2017-07-06T07:28:09.719Z,39.7
2017-07-06T07:29:09.773Z,39.64
2017-07-06T07:30:09.828Z,39.22
2017-07-06T07:31:09.882Z,38.76
2017-07-06T07:32:09.936Z,38.3
2017-07-06T07:33:09.990Z,37.77
2017-07-06T07:34:10.041Z,37.14
2017-07-06T07:35:10.096Z,36.61
2017-07-06T07:36:10.151Z,36.24
2017-07-06T07:37:10.202Z,35.77
2017-07-06T07:38:10.258Z,35.52
2017-07-06T07:39:10.306Z,35.39
2017-07-06T07:40:10.370Z,35.15
2017-07-06T07:41:10.412Z,35.15
2017-07-06T07:42:10.462Z,35.11
2017-07-06T07:43:10.514Z,34.84
2017-07-06T07:44:10.568Z,34.64
2017-07-06T07:45:10.619Z,34.63
2017-07-06T07:46:10.668Z,34.5
2017-07-06T07:47:10.720Z,34.38
2017-07-06T07:48:10.774Z,34.2
2017-07-06T07:49:10.823Z,34.13
2017-07-06T07:50:10.874Z,34.09
2017-07-06T07:51:10.927Z,34.27
2017-07-06T07:52:10.975Z,34.51
2017-07-06T07:53:11.038Z,34.83
2017-07-06T07:54:11.399Z,35.29
2017-07-06T07:55:11.134Z,35.51
2017-07-06T07:56:11.183Z,35.95
2017-07-06T07:57:11.235Z,36.24
2017-07-06T07:58:11.290Z,36.67
2017-07-06T07:59:11.344Z,37.2
2017-07-06T08:00:11.397Z,37.71
2017-07-06T08:01:12.959Z,38.2
2017-07-06T08:02:11.502Z,38.49
2017-07-06T08:03:13.667Z,38.63
2017-07-06T08:04:13.203Z,38.87
2017-07-06T08:05:11.668Z,38.99
2017-07-06T08:06:13.774Z,39.17
2017-07-06T08:07:11.776Z,39.46
2017-07-06T08:08:11.830Z,39.59
2017-07-06T08:09:11.885Z,39.9
2017-07-06T08:10:11.941Z,40.12
2017-07-06T08:11:11.997Z,40.33
2017-07-06T08:12:12.053Z,40.64
2017-07-06T08:13:12.112Z,40.76
2017-07-06T08:14:12.167Z,40.87
2017-07-06T08:15:12.536Z,40.94
2017-07-06T08:16:12.279Z,41.08
2017-07-06T08:17:12.337Z,41.12
2017-07-06T08:18:12.392Z,41.24
2017-07-06T08:19:12.452Z,41.49
2017-07-06T08:20:12.506Z,41.43
2017-07-06T08:21:12.572Z,41.36
2017-07-06T08:22:12.623Z,41.43
2017-07-06T08:23:12.681Z,41.43
2017-07-06T08:24:12.735Z,41.47
2017-07-06T08:25:12.791Z,41.55
2017-07-06T08:26:12.850Z,41.46
2017-07-06T08:27:12.908Z,41.43
2017-07-06T08:28:12.968Z,41.29
2017-07-06T08:29:13.022Z,41.36
2017-07-06T08:30:13.081Z,41.41
2017-07-06T08:31:13.136Z,41.33
2017-07-06T08:32:13.197Z,41.24
2017-07-06T08:33:13.252Z,41.12
2017-07-06T08:34:13.310Z,41.12
2017-07-06T08:35:13.365Z,41.17
2017-07-06T08:36:13.425Z,41.2
2017-07-06T08:37:13.479Z,41.34
2017-07-06T08:38:13.538Z,41.18
2017-07-06T08:39:13.596Z,41.17
2017-07-06T08:40:13.651Z,41.25
2017-07-06T08:41:13.709Z,41.44
2017-07-06T08:42:13.769Z,41.47
2017-07-06T08:43:13.826Z,41.54
2017-07-06T08:44:13.883Z,41.36
2017-07-06T08:45:13.942Z,40.93
2017-07-06T08:46:13.997Z,40.79
2017-07-06T08:47:14.056Z,40.46
2017-07-06T08:48:14.115Z,40.24
2017-07-06T08:49:14.170Z,39.98
2017-07-06T08:50:14.224Z,39.9
2017-07-06T08:51:14.282Z,39.86
2017-07-06T08:52:14.343Z,39.77
2017-07-06T08:53:14.711Z,39.74
2017-07-06T08:54:14.451Z,39.78
2017-07-06T08:55:14.509Z,39.9
2017-07-06T08:56:14.890Z,39.89
2017-07-06T08:57:14.623Z,39.83
2017-07-06T08:58:14.694Z,39.89
2017-07-06T08:59:14.738Z,39.92
2017-07-06T09:00:14.791Z,39.93
2017-07-06T09:01:16.252Z,39.99
2017-07-06T09:02:14.906Z,40.02
2017-07-06T09:03:14.964Z,40.04
2017-07-06T09:04:15.021Z,40.05
2017-07-06T09:05:15.078Z,40.12
2017-07-06T09:06:15.139Z,40.05
2017-07-06T09:07:15.190Z,39.86
2017-07-06T09:08:15.250Z,39.59
2017-07-06T09:09:15.308Z,39.35
2017-07-06T09:10:15.361Z,39.13
2017-07-06T09:11:15.420Z,38.8
2017-07-06T09:12:15.474Z,38.42
2017-07-06T09:13:15.529Z,38.11
2017-07-06T09:14:15.584Z,37.7
2017-07-06T09:15:15.638Z,37.32
2017-07-06T09:16:15.692Z,36.95
2017-07-06T09:17:15.749Z,36.68
2017-07-06T09:18:15.803Z,36.61
2017-07-06T09:19:15.864Z,36.33
2017-07-06T09:20:15.909Z,36.24
2017-07-06T09:21:15.968Z,36.19
2017-07-06T09:22:16.022Z,35.92
2017-07-06T09:23:16.071Z,35.79
2017-07-06T09:24:16.126Z,35.7
2017-07-06T09:25:16.179Z,35.57
2017-07-06T09:26:16.233Z,35.64
2017-07-06T09:27:16.287Z,35.82
2017-07-06T09:28:16.345Z,35.92
2017-07-06T09:29:16.395Z,35.93
2017-07-06T09:30:16.448Z,35.92
2017-07-06T09:31:16.503Z,36
2017-07-06T09:32:16.555Z,36.2
2017-07-06T09:33:16.611Z,36.33
2017-07-06T09:34:16.887Z,36.49
2017-07-06T09:35:16.719Z,36.77
2017-07-06T09:36:16.776Z,36.86
2017-07-06T09:37:16.830Z,36.91
2017-07-06T09:38:16.886Z,36.8
2017-07-06T09:39:16.939Z,36.77
2017-07-06T09:40:16.996Z,36.64
2017-07-06T09:41:17.050Z,36.45
2017-07-06T09:42:17.107Z,36.2
2017-07-06T09:43:17.161Z,35.89
2017-07-06T09:44:17.214Z,35.62
2017-07-06T09:45:17.268Z,35.32
2017-07-06T09:46:17.323Z,35.13
2017-07-06T09:47:17.595Z,35.11
2017-07-06T09:48:17.431Z,35.13
2017-07-06T09:49:17.486Z,35.01
2017-07-06T09:50:17.538Z,35.03
2017-07-06T09:51:17.594Z,35.2
2017-07-06T09:52:17.648Z,35.28
2017-07-06T09:53:17.700Z,35.3
2017-07-06T09:54:17.757Z,35.25
2017-07-06T09:55:17.811Z,35.1
2017-07-06T09:56:17.864Z,35.02
2017-07-06T09:57:17.919Z,35.17
2017-07-06T09:58:17.974Z,35.18
2017-07-06T09:59:18.032Z,35.14
2017-07-06T10:00:18.087Z,35.23
2017-07-06T10:01:18.135Z,35.32
2017-07-06T10:02:18.192Z,35.33
2017-07-06T10:03:18.249Z,35.5
2017-07-06T10:04:18.302Z,35.36
2017-07-06T10:05:18.357Z,35.21
2017-07-06T10:06:18.414Z,34.8
2017-07-06T10:07:18.468Z,34.63
2017-07-06T10:08:18.523Z,34.66
2017-07-06T10:09:18.579Z,34.64
2017-07-06T10:10:18.635Z,34.74
2017-07-06T10:11:18.692Z,34.73
2017-07-06T10:12:18.745Z,34.7
2017-07-06T10:13:18.801Z,34.7
2017-07-06T10:14:18.858Z,34.76
2017-07-06T10:15:18.912Z,34.83
2017-07-06T10:16:18.971Z,34.8
2017-07-06T10:17:19.023Z,35.01
2017-07-06T10:18:19.078Z,35.1
2017-07-06T10:19:19.135Z,35.06
2017-07-06T10:20:19.191Z,34.81
2017-07-06T10:21:19.247Z,34.61
2017-07-06T10:22:19.301Z,34.63
2017-07-06T10:23:19.357Z,34.57
2017-07-06T10:24:19.422Z,34.5
2017-07-06T10:25:19.469Z,34.54
2017-07-06T10:26:19.526Z,34.44
2017-07-06T10:27:19.905Z,34.24
2017-07-06T10:28:19.639Z,34.13
2017-07-06T10:29:19.693Z,34.11
2017-07-06T10:30:19.746Z,34.05
2017-07-06T10:31:19.806Z,34.02
2017-07-06T10:32:19.862Z,34.02
2017-07-06T10:33:19.917Z,33.98
2017-07-06T10:34:19.971Z,34
2017-07-06T10:35:20.030Z,33.9
2017-07-06T10:36:20.087Z,33.95
2017-07-06T10:37:20.142Z,33.92
2017-07-06T10:38:20.196Z,33.94
2017-07-06T10:39:20.256Z,33.85
2017-07-06T10:40:20.308Z,33.85
2017-07-06T10:41:20.371Z,33.86
2017-07-06T10:42:20.424Z,33.89
2017-07-06T10:43:20.479Z,33.95
2017-07-06T10:44:20.538Z,33.97
2017-07-06T10:45:20.596Z,33.83
2017-07-06T10:46:20.653Z,33.82
2017-07-06T10:47:20.712Z,33.82
2017-07-06T10:48:20.767Z,33.57
2017-07-06T10:49:20.822Z,33.36
2017-07-06T10:50:20.884Z,33.29
2017-07-06T10:51:21.262Z,33.1
2017-07-06T10:52:21.000Z,33.1
2017-07-06T10:53:21.055Z,33.07
2017-07-06T10:54:21.116Z,33.01
2017-07-06T10:55:21.172Z,33.11
2017-07-06T10:56:21.233Z,33.19
2017-07-06T10:57:21.289Z,33.19
2017-07-06T10:58:21.346Z,33.13
2017-07-06T10:59:21.403Z,32.98
2017-07-06T11:00:21.460Z,32.76
2017-07-06T11:01:21.521Z,32.76
2017-07-06T11:02:21.575Z,32.7
2017-07-06T11:03:21.631Z,32.55
2017-07-06T11:04:21.688Z,32.59
2017-07-06T11:05:21.743Z,32.58
2017-07-06T11:06:21.798Z,32.57
2017-07-06T11:07:21.857Z,32.47
2017-07-06T11:08:21.915Z,32.43
2017-07-06T11:09:21.966Z,32.27
2017-07-06T11:10:22.021Z,32.18
2017-07-06T11:11:22.077Z,32
2017-07-06T11:12:22.131Z,32.1
2017-07-06T11:13:22.183Z,32.02
2017-07-06T11:14:22.237Z,32
2017-07-06T11:15:22.291Z,31.92
2017-07-06T11:16:22.369Z,31.85
2017-07-06T11:17:22.396Z,31.64
2017-07-06T11:18:22.445Z,31.5
2017-07-06T11:19:22.499Z,31.46
2017-07-06T11:20:22.548Z,31.3
2017-07-06T11:21:22.597Z,31.21
2017-07-06T11:22:22.649Z,31.04
2017-07-06T11:23:22.695Z,30.99
2017-07-06T11:24:22.745Z,30.98
2017-07-06T11:25:23.112Z,30.83
2017-07-06T11:26:22.848Z,30.76
2017-07-06T11:27:23.282Z,30.71
2017-07-06T11:28:23.263Z,30.71
2017-07-06T11:29:22.993Z,30.78
2017-07-06T11:30:23.042Z,30.76
2017-07-06T11:31:23.090Z,30.81
2017-07-06T11:32:23.144Z,30.99
2017-07-06T11:33:23.191Z,30.91
2017-07-06T11:34:23.239Z,30.91
2017-07-06T11:35:23.293Z,31.02
2017-07-06T11:36:23.344Z,31.09
2017-07-06T11:37:23.387Z,31.04
2017-07-06T11:38:23.435Z,31.01
2017-07-06T11:39:23.484Z,30.99
2017-07-06T11:40:23.534Z,30.98
2017-07-06T11:41:23.581Z,30.99
2017-07-06T11:42:23.628Z,30.93
2017-07-06T11:43:23.677Z,30.96
2017-07-06T11:44:23.725Z,30.86
2017-07-06T11:45:23.775Z,30.86
2017-07-06T11:46:23.821Z,30.68
2017-07-06T11:47:23.870Z,30.67
2017-07-06T11:48:23.917Z,30.61
2017-07-06T11:49:23.972Z,30.65
2017-07-06T11:50:24.016Z,30.68
2017-07-06T11:51:24.064Z,30.84
2017-07-06T11:52:24.111Z,30.91
2017-07-06T11:53:24.157Z,30.89
2017-07-06T11:54:24.203Z,30.93
2017-07-06T11:55:24.259Z,30.93
2017-07-06T11:56:24.302Z,30.93
2017-07-06T11:57:24.349Z,30.93
2017-07-06T11:58:24.395Z,30.8
2017-07-06T11:59:24.447Z,30.8
2017-07-06T12:00:24.493Z,30.67
2017-07-06T12:01:24.541Z,30.71
2017-07-06T12:02:24.592Z,30.64
2017-07-06T12:03:24.643Z,30.61
2017-07-06T12:04:24.686Z,30.56
2017-07-06T12:05:24.732Z,30.49
2017-07-06T12:06:24.781Z,30.54
2017-07-06T12:07:24.831Z,30.57
2017-07-06T12:08:24.874Z,30.47
2017-07-06T12:09:24.922Z,30.33
2017-07-06T12:10:24.970Z,30.24
2017-07-06T12:11:25.020Z,30.24
2017-07-06T12:12:25.066Z,30.27
2017-07-06T12:13:25.114Z,30.27
2017-07-06T12:14:25.164Z,30.31
2017-07-06T12:15:25.208Z,30.36
2017-07-06T12:16:25.254Z,30.43
2017-07-06T12:17:25.304Z,30.38
2017-07-06T12:18:25.351Z,30.34
2017-07-06T12:19:25.398Z,30.33
2017-07-06T12:20:25.446Z,30.37
2017-07-06T12:21:25.493Z,30.37
2017-07-06T12:22:25.540Z,30.21
2017-07-06T12:23:25.589Z,30.18
2017-07-06T12:24:25.634Z,30.18
2017-07-06T12:25:25.682Z,30.24
2017-07-06T12:26:25.773Z,30.21
2017-07-06T12:27:25.785Z,30.14
2017-07-06T12:28:25.824Z,30.12
2017-07-06T12:29:25.871Z,30.16
2017-07-06T12:30:25.916Z,30.08
2017-07-06T12:31:25.967Z,30.09
2017-07-06T12:32:26.012Z,30.18
2017-07-06T12:33:26.062Z,30.09
2017-07-06T12:34:26.107Z,30.14
2017-07-06T12:35:26.155Z,30.14
2017-07-06T12:36:26.201Z,30.11
2017-07-06T12:37:26.249Z,30.08
2017-07-06T12:38:26.295Z,30.03
2017-07-06T12:39:26.344Z,29.94
2017-07-06T12:40:26.391Z,30.03
2017-07-06T12:41:26.436Z,29.97
2017-07-06T12:42:26.514Z,29.9
2017-07-06T12:43:26.532Z,29.94
2017-07-06T12:44:26.579Z,29.9
2017-07-06T12:45:26.623Z,29.82
2017-07-06T12:46:26.668Z,29.9
2017-07-06T12:47:26.720Z,29.78
2017-07-06T12:48:26.764Z,29.79
2017-07-06T12:49:26.812Z,29.78
2017-07-06T12:50:26.857Z,29.77
2017-07-06T12:51:26.906Z,29.77
2017-07-06T12:52:26.953Z,29.72
2017-07-06T12:53:26.996Z,29.74
2017-07-06T12:54:27.047Z,29.65
2017-07-06T12:55:27.091Z,29.75
2017-07-06T12:56:27.138Z,29.7
2017-07-06T12:57:27.188Z,29.72